sensor_id;sensor_type;location;lat;lon;timestamp;P1;durP1;ratioP1;P2;durP2;ratioP2
69588;SDS011;56792;50.644;17.984;2023-08-24T00:00:43;6.90;;;4.30;;
69588;SDS011;56792;50.644;17.984;2023-08-24T00:03:15;6.70;;;4.20;;
69588;SDS011;56792;50.644;17.984;2023-08-24T00:05:46;5.90;;;4.20;;
69588;SDS011;56792;50.644;17.984;2023-08-24T00:08:18;6.40;;;4.10;;
69588;SDS011;56792;50.644;17.984;2023-08-24T00:10:49;5.60;;;4.40;;
69588;SDS011;56792;50.644;17.984;2023-08-24T00:13:20;6.10;;;4.60;;
69588;SDS011;56792;50.644;17.984;2023-08-24T00:15:51;7.40;;;4.60;;
69588;SDS011;56792;50.644;17.984;2023-08-24T00:18:23;8.20;;;4.40;;
69588;SDS011;56792;50.644;17.984;2023-08-24T00:20:54;7.30;;;5.00;;
69588;SDS011;56792;50.644;17.984;2023-08-24T00:23:26;7.70;;;5.20;;
69588;SDS011;56792;50.644;17.984;2023-08-24T00:25:57;6.50;;;4.80;;
69588;SDS011;56792;50.644;17.984;2023-08-24T00:28:28;6.70;;;4.30;;
69588;SDS011;56792;50.644;17.984;2023-08-24T00:30:59;6.40;;;4.20;;
69588;SDS011;56792;50.644;17.984;2023-08-24T00:33:30;7.30;;;4.50;;
69588;SDS011;56792;50.644;17.984;2023-08-24T00:36:02;6.60;;;4.40;;
69588;SDS011;56792;50.644;17.984;2023-08-24T00:38:34;8.00;;;4.70;;
69588;SDS011;56792;50.644;17.984;2023-08-24T00:41:05;6.00;;;4.40;;
69588;SDS011;56792;50.644;17.984;2023-08-24T00:43:36;7.60;;;4.30;;
69588;SDS011;56792;50.644;17.984;2023-08-24T00:46:07;7.00;;;4.20;;
69588;SDS011;56792;50.644;17.984;2023-08-24T00:48:38;6.80;;;4.60;;
69588;SDS011;56792;50.644;17.984;2023-08-24T00:51:09;8.00;;;4.60;;
69588;SDS011;56792;50.644;17.984;2023-08-24T00:53:41;7.00;;;4.60;;
69588;SDS011;56792;50.644;17.984;2023-08-24T00:56:13;7.20;;;4.70;;
69588;SDS011;56792;50.644;17.984;2023-08-24T00:58:46;6.50;;;4.60;;
69588;SDS011;56792;50.644;17.984;2023-08-24T01:01:18;7.70;;;4.60;;
69588;SDS011;56792;50.644;17.984;2023-08-24T01:03:49;7.70;;;4.40;;
69588;SDS011;56792;50.644;17.984;2023-08-24T01:06:20;7.50;;;4.50;;
69588;SDS011;56792;50.644;17.984;2023-08-24T01:08:52;6.20;;;4.50;;
69588;SDS011;56792;50.644;17.984;2023-08-24T01:11:32;8.10;;;4.80;;
69588;SDS011;56792;50.644;17.984;2023-08-24T01:14:21;6.80;;;4.90;;
69588;SDS011;56792;50.644;17.984;2023-08-24T01:17:01;6.10;;;4.20;;
69588;SDS011;56792;50.644;17.984;2023-08-24T01:19:41;8.00;;;4.50;;
69588;SDS011;56792;50.644;17.984;2023-08-24T01:22:31;8.20;;;4.50;;
69588;SDS011;56792;50.644;17.984;2023-08-24T01:25:17;7.10;;;4.40;;
69588;SDS011;56792;50.644;17.984;2023-08-24T01:27:53;7.70;;;4.40;;
69588;SDS011;56792;50.644;17.984;2023-08-24T01:30:26;5.70;;;4.40;;
69588;SDS011;56792;50.644;17.984;2023-08-24T01:32:59;6.10;;;4.70;;
69588;SDS011;56792;50.644;17.984;2023-08-24T01:35:31;8.80;;;4.40;;
69588;SDS011;56792;50.644;17.984;2023-08-24T01:38:02;6.50;;;4.40;;
69588;SDS011;56792;50.644;17.984;2023-08-24T01:40:43;5.70;;;4.50;;
69588;SDS011;56792;50.644;17.984;2023-08-24T01:43:20;6.40;;;4.70;;
69588;SDS011;56792;50.644;17.984;2023-08-24T01:45:56;7.30;;;4.50;;
69588;SDS011;56792;50.644;17.984;2023-08-24T01:48:29;6.50;;;4.60;;
69588;SDS011;56792;50.644;17.984;2023-08-24T01:51:02;6.70;;;5.00;;
69588;SDS011;56792;50.644;17.984;2023-08-24T01:53:34;7.20;;;4.90;;
69588;SDS011;56792;50.644;17.984;2023-08-24T01:56:10;8.30;;;4.80;;
69588;SDS011;56792;50.644;17.984;2023-08-24T01:58:42;6.90;;;4.90;;
69588;SDS011;56792;50.644;17.984;2023-08-24T02:01:13;6.70;;;4.70;;
69588;SDS011;56792;50.644;17.984;2023-08-24T02:03:45;6.20;;;4.40;;
69588;SDS011;56792;50.644;17.984;2023-08-24T02:06:16;7.70;;;4.50;;
69588;SDS011;56792;50.644;17.984;2023-08-24T02:08:47;6.30;;;4.20;;
69588;SDS011;56792;50.644;17.984;2023-08-24T02:11:18;11.10;;;4.60;;
69588;SDS011;56792;50.644;17.984;2023-08-24T02:13:49;6.40;;;4.30;;
69588;SDS011;56792;50.644;17.984;2023-08-24T02:16:20;6.70;;;4.40;;
69588;SDS011;56792;50.644;17.984;2023-08-24T02:18:53;7.20;;;4.50;;
69588;SDS011;56792;50.644;17.984;2023-08-24T02:21:24;9.10;;;4.60;;
69588;SDS011;56792;50.644;17.984;2023-08-24T02:23:55;8.00;;;4.50;;
69588;SDS011;56792;50.644;17.984;2023-08-24T02:26:26;6.10;;;3.90;;
69588;SDS011;56792;50.644;17.984;2023-08-24T02:28:58;6.20;;;4.60;;
69588;SDS011;56792;50.644;17.984;2023-08-24T02:31:30;7.90;;;4.40;;
69588;SDS011;56792;50.644;17.984;2023-08-24T02:34:01;7.70;;;4.20;;
69588;SDS011;56792;50.644;17.984;2023-08-24T02:36:32;7.00;;;4.50;;
69588;SDS011;56792;50.644;17.984;2023-08-24T02:39:04;7.60;;;4.80;;
69588;SDS011;56792;50.644;17.984;2023-08-24T02:41:36;7.10;;;4.40;;
69588;SDS011;56792;50.644;17.984;2023-08-24T02:44:07;6.20;;;4.70;;
69588;SDS011;56792;50.644;17.984;2023-08-24T02:46:39;7.00;;;4.10;;
69588;SDS011;56792;50.644;17.984;2023-08-24T02:49:12;7.40;;;4.40;;
69588;SDS011;56792;50.644;17.984;2023-08-24T02:51:45;8.80;;;4.40;;
69588;SDS011;56792;50.644;17.984;2023-08-24T02:54:16;5.90;;;4.10;;
69588;SDS011;56792;50.644;17.984;2023-08-24T02:56:48;7.00;;;4.50;;
69588;SDS011;56792;50.644;17.984;2023-08-24T02:59:19;6.50;;;4.00;;
69588;SDS011;56792;50.644;17.984;2023-08-24T03:01:50;8.90;;;4.20;;
69588;SDS011;56792;50.644;17.984;2023-08-24T03:04:21;5.70;;;4.00;;
69588;SDS011;56792;50.644;17.984;2023-08-24T03:06:54;7.40;;;4.50;;
69588;SDS011;56792;50.644;17.984;2023-08-24T03:09:25;6.00;;;4.70;;
69588;SDS011;56792;50.644;17.984;2023-08-24T03:11:56;7.30;;;4.70;;
69588;SDS011;56792;50.644;17.984;2023-08-24T03:14:27;7.30;;;4.60;;
69588;SDS011;56792;50.644;17.984;2023-08-24T03:16:58;6.50;;;3.90;;
69588;SDS011;56792;50.644;17.984;2023-08-24T03:19:32;7.80;;;4.50;;
69588;SDS011;56792;50.644;17.984;2023-08-24T03:22:03;5.80;;;4.00;;
69588;SDS011;56792;50.644;17.984;2023-08-24T03:24:34;7.20;;;4.50;;
69588;SDS011;56792;50.644;17.984;2023-08-24T03:27:06;6.10;;;4.20;;
69588;SDS011;56792;50.644;17.984;2023-08-24T03:29:37;6.40;;;4.40;;
69588;SDS011;56792;50.644;17.984;2023-08-24T03:32:08;6.70;;;4.30;;
69588;SDS011;56792;50.644;17.984;2023-08-24T03:34:40;7.30;;;4.70;;
69588;SDS011;56792;50.644;17.984;2023-08-24T03:37:11;6.70;;;4.50;;
69588;SDS011;56792;50.644;17.984;2023-08-24T03:39:43;6.40;;;4.60;;
69588;SDS011;56792;50.644;17.984;2023-08-24T03:42:14;7.10;;;4.00;;
69588;SDS011;56792;50.644;17.984;2023-08-24T03:44:45;7.20;;;4.30;;
69588;SDS011;56792;50.644;17.984;2023-08-24T03:47:16;8.40;;;4.50;;
69588;SDS011;56792;50.644;17.984;2023-08-24T03:49:47;6.10;;;4.10;;
69588;SDS011;56792;50.644;17.984;2023-08-24T03:52:18;5.70;;;4.50;;
69588;SDS011;56792;50.644;17.984;2023-08-24T03:54:50;7.20;;;4.40;;
69588;SDS011;56792;50.644;17.984;2023-08-24T03:57:21;7.00;;;4.50;;
69588;SDS011;56792;50.644;17.984;2023-08-24T03:59:52;7.20;;;5.10;;
69588;SDS011;56792;50.644;17.984;2023-08-24T04:02:24;6.60;;;4.60;;
69588;SDS011;56792;50.644;17.984;2023-08-24T04:04:55;7.00;;;4.80;;
69588;SDS011;56792;50.644;17.984;2023-08-24T04:07:26;7.20;;;4.60;;
69588;SDS011;56792;50.644;17.984;2023-08-24T04:09:57;7.20;;;4.80;;
69588;SDS011;56792;50.644;17.984;2023-08-24T04:12:28;8.70;;;4.70;;
69588;SDS011;56792;50.644;17.984;2023-08-24T04:14:59;16.80;;;5.40;;
69588;SDS011;56792;50.644;17.984;2023-08-24T04:17:31;7.50;;;4.90;;
69588;SDS011;56792;50.644;17.984;2023-08-24T04:20:02;6.60;;;4.80;;
69588;SDS011;56792;50.644;17.984;2023-08-24T04:22:35;6.90;;;4.60;;
69588;SDS011;56792;50.644;17.984;2023-08-24T04:25:07;7.20;;;5.60;;
69588;SDS011;56792;50.644;17.984;2023-08-24T04:27:38;7.00;;;5.10;;
69588;SDS011;56792;50.644;17.984;2023-08-24T04:30:10;8.10;;;5.40;;
69588;SDS011;56792;50.644;17.984;2023-08-24T04:32:42;8.40;;;5.10;;
69588;SDS011;56792;50.644;17.984;2023-08-24T04:35:13;7.70;;;5.50;;
69588;SDS011;56792;50.644;17.984;2023-08-24T04:37:44;7.40;;;5.40;;
69588;SDS011;56792;50.644;17.984;2023-08-24T04:40:15;7.00;;;5.20;;
69588;SDS011;56792;50.644;17.984;2023-08-24T04:42:46;9.90;;;5.70;;
69588;SDS011;56792;50.644;17.984;2023-08-24T04:45:17;10.70;;;6.00;;
69588;SDS011;56792;50.644;17.984;2023-08-24T04:47:48;7.90;;;5.50;;
69588;SDS011;56792;50.644;17.984;2023-08-24T04:50:20;8.20;;;6.00;;
69588;SDS011;56792;50.644;17.984;2023-08-24T04:52:51;8.20;;;5.70;;
69588;SDS011;56792;50.644;17.984;2023-08-24T04:55:22;8.80;;;5.90;;
69588;SDS011;56792;50.644;17.984;2023-08-24T04:57:53;10.40;;;6.00;;
69588;SDS011;56792;50.644;17.984;2023-08-24T05:00:24;8.70;;;5.80;;
69588;SDS011;56792;50.644;17.984;2023-08-24T05:02:55;9.20;;;6.10;;
69588;SDS011;56792;50.644;17.984;2023-08-24T05:05:26;10.70;;;6.90;;
69588;SDS011;56792;50.644;17.984;2023-08-24T05:08:00;8.60;;;6.40;;
69588;SDS011;56792;50.644;17.984;2023-08-24T05:10:34;9.40;;;6.60;;
69588;SDS011;56792;50.644;17.984;2023-08-24T05:13:06;9.10;;;6.80;;
69588;SDS011;56792;50.644;17.984;2023-08-24T05:15:37;11.30;;;7.40;;
69588;SDS011;56792;50.644;17.984;2023-08-24T05:18:08;12.70;;;8.20;;
69588;SDS011;56792;50.644;17.984;2023-08-24T05:20:39;12.10;;;9.10;;
69588;SDS011;56792;50.644;17.984;2023-08-24T05:23:10;12.70;;;8.30;;
69588;SDS011;56792;50.644;17.984;2023-08-24T05:25:41;12.90;;;9.40;;
69588;SDS011;56792;50.644;17.984;2023-08-24T05:28:12;12.10;;;9.20;;
69588;SDS011;56792;50.644;17.984;2023-08-24T05:30:43;13.00;;;9.40;;
69588;SDS011;56792;50.644;17.984;2023-08-24T05:33:14;13.70;;;9.00;;
69588;SDS011;56792;50.644;17.984;2023-08-24T05:35:45;13.20;;;9.70;;
69588;SDS011;56792;50.644;17.984;2023-08-24T05:38:17;13.00;;;9.40;;
69588;SDS011;56792;50.644;17.984;2023-08-24T05:40:49;13.90;;;9.90;;
69588;SDS011;56792;50.644;17.984;2023-08-24T05:43:21;13.70;;;9.60;;
69588;SDS011;56792;50.644;17.984;2023-08-24T05:45:52;13.70;;;9.70;;
69588;SDS011;56792;50.644;17.984;2023-08-24T05:48:23;13.10;;;10.20;;
69588;SDS011;56792;50.644;17.984;2023-08-24T05:50:54;15.40;;;10.70;;
69588;SDS011;56792;50.644;17.984;2023-08-24T05:53:25;13.60;;;10.60;;
69588;SDS011;56792;50.644;17.984;2023-08-24T05:55:59;14.30;;;10.70;;
69588;SDS011;56792;50.644;17.984;2023-08-24T05:58:30;16.90;;;10.40;;
69588;SDS011;56792;50.644;17.984;2023-08-24T06:01:02;13.20;;;10.40;;
69588;SDS011;56792;50.644;17.984;2023-08-24T06:03:33;13.30;;;8.70;;
69588;SDS011;56792;50.644;17.984;2023-08-24T06:06:05;11.30;;;8.50;;
69588;SDS011;56792;50.644;17.984;2023-08-24T06:08:37;10.80;;;7.80;;
69588;SDS011;56792;50.644;17.984;2023-08-24T06:11:08;14.90;;;8.10;;
69588;SDS011;56792;50.644;17.984;2023-08-24T06:13:39;13.00;;;7.40;;
69588;SDS011;56792;50.644;17.984;2023-08-24T06:16:10;11.20;;;8.00;;
69588;SDS011;56792;50.644;17.984;2023-08-24T06:18:41;10.30;;;7.90;;
69588;SDS011;56792;50.644;17.984;2023-08-24T06:21:12;11.50;;;7.80;;
69588;SDS011;56792;50.644;17.984;2023-08-24T06:23:43;9.40;;;7.40;;
69588;SDS011;56792;50.644;17.984;2023-08-24T06:26:16;9.30;;;8.20;;
69588;SDS011;56792;50.644;17.984;2023-08-24T06:28:47;8.70;;;7.20;;
69588;SDS011;56792;50.644;17.984;2023-08-24T06:31:18;10.70;;;8.10;;
69588;SDS011;56792;50.644;17.984;2023-08-24T06:33:50;10.20;;;8.10;;
69588;SDS011;56792;50.644;17.984;2023-08-24T06:36:21;11.20;;;7.60;;
69588;SDS011;56792;50.644;17.984;2023-08-24T06:38:52;11.40;;;7.50;;
69588;SDS011;56792;50.644;17.984;2023-08-24T06:41:23;8.80;;;6.90;;
69588;SDS011;56792;50.644;17.984;2023-08-24T06:43:54;9.90;;;7.30;;
69588;SDS011;56792;50.644;17.984;2023-08-24T06:46:27;10.60;;;7.30;;
69588;SDS011;56792;50.644;17.984;2023-08-24T06:48:58;8.10;;;6.10;;
69588;SDS011;56792;50.644;17.984;2023-08-24T06:51:29;7.30;;;5.90;;
69588;SDS011;56792;50.644;17.984;2023-08-24T06:54:00;10.70;;;6.00;;
69588;SDS011;56792;50.644;17.984;2023-08-24T06:56:31;9.40;;;5.90;;
69588;SDS011;56792;50.644;17.984;2023-08-24T06:59:02;8.60;;;6.00;;
69588;SDS011;56792;50.644;17.984;2023-08-24T07:01:33;8.30;;;6.30;;
69588;SDS011;56792;50.644;17.984;2023-08-24T07:04:05;8.80;;;5.40;;
69588;SDS011;56792;50.644;17.984;2023-08-24T07:06:36;10.20;;;5.20;;
69588;SDS011;56792;50.644;17.984;2023-08-24T07:09:07;8.20;;;5.60;;
69588;SDS011;56792;50.644;17.984;2023-08-24T07:11:38;8.00;;;5.00;;
69588;SDS011;56792;50.644;17.984;2023-08-24T07:14:10;9.70;;;5.10;;
69588;SDS011;56792;50.644;17.984;2023-08-24T07:16:41;7.10;;;5.50;;
69588;SDS011;56792;50.644;17.984;2023-08-24T07:19:12;7.10;;;5.30;;
69588;SDS011;56792;50.644;17.984;2023-08-24T07:21:43;10.10;;;5.50;;
69588;SDS011;56792;50.644;17.984;2023-08-24T07:24:14;8.50;;;5.20;;
69588;SDS011;56792;50.644;17.984;2023-08-24T07:26:47;6.40;;;4.90;;
69588;SDS011;56792;50.644;17.984;2023-08-24T07:29:18;6.30;;;4.30;;
69588;SDS011;56792;50.644;17.984;2023-08-24T07:31:49;6.40;;;5.30;;
69588;SDS011;56792;50.644;17.984;2023-08-24T07:34:20;8.30;;;4.60;;
69588;SDS011;56792;50.644;17.984;2023-08-24T07:36:51;9.20;;;5.00;;
69588;SDS011;56792;50.644;17.984;2023-08-24T07:39:22;6.80;;;4.60;;
69588;SDS011;56792;50.644;17.984;2023-08-24T07:41:54;12.70;;;5.20;;
69588;SDS011;56792;50.644;17.984;2023-08-24T07:44:25;7.00;;;4.20;;
69588;SDS011;56792;50.644;17.984;2023-08-24T07:46:56;6.60;;;4.60;;
69588;SDS011;56792;50.644;17.984;2023-08-24T07:49:27;5.30;;;4.30;;
69588;SDS011;56792;50.644;17.984;2023-08-24T07:51:58;8.90;;;4.60;;
69588;SDS011;56792;50.644;17.984;2023-08-24T07:54:29;6.60;;;4.40;;
69588;SDS011;56792;50.644;17.984;2023-08-24T07:57:00;6.00;;;6.30;;
69588;SDS011;56792;50.644;17.984;2023-08-24T07:59:31;6.60;;;4.60;;
69588;SDS011;56792;50.644;17.984;2023-08-24T08:02:02;6.60;;;5.00;;
69588;SDS011;56792;50.644;17.984;2023-08-24T08:04:33;6.30;;;4.00;;
69588;SDS011;56792;50.644;17.984;2023-08-24T08:07:05;6.40;;;4.70;;
69588;SDS011;56792;50.644;17.984;2023-08-24T08:09:37;7.30;;;4.30;;
69588;SDS011;56792;50.644;17.984;2023-08-24T08:12:08;7.10;;;4.60;;
69588;SDS011;56792;50.644;17.984;2023-08-24T08:14:39;6.20;;;4.30;;
69588;SDS011;56792;50.644;17.984;2023-08-24T08:17:10;6.40;;;4.60;;
69588;SDS011;56792;50.644;17.984;2023-08-24T08:19:41;6.20;;;4.20;;
69588;SDS011;56792;50.644;17.984;2023-08-24T08:22:13;7.40;;;4.50;;
69588;SDS011;56792;50.644;17.984;2023-08-24T08:24:44;9.30;;;4.80;;
69588;SDS011;56792;50.644;17.984;2023-08-24T08:27:16;7.20;;;4.60;;
69588;SDS011;56792;50.644;17.984;2023-08-24T08:29:47;6.00;;;3.90;;
69588;SDS011;56792;50.644;17.984;2023-08-24T08:32:18;7.40;;;4.30;;
69588;SDS011;56792;50.644;17.984;2023-08-24T08:34:49;6.80;;;4.60;;
69588;SDS011;56792;50.644;17.984;2023-08-24T08:37:20;6.20;;;4.70;;
69588;SDS011;56792;50.644;17.984;2023-08-24T08:39:51;5.10;;;4.00;;
69588;SDS011;56792;50.644;17.984;2023-08-24T08:42:22;7.20;;;4.40;;
69588;SDS011;56792;50.644;17.984;2023-08-24T08:44:54;11.00;;;3.90;;
69588;SDS011;56792;50.644;17.984;2023-08-24T08:47:25;7.60;;;4.30;;
69588;SDS011;56792;50.644;17.984;2023-08-24T08:49:57;7.40;;;4.20;;
69588;SDS011;56792;50.644;17.984;2023-08-24T08:52:29;6.30;;;4.10;;
69588;SDS011;56792;50.644;17.984;2023-08-24T08:55:01;5.20;;;3.70;;
69588;SDS011;56792;50.644;17.984;2023-08-24T08:57:34;6.00;;;4.20;;
69588;SDS011;56792;50.644;17.984;2023-08-24T09:00:10;6.00;;;3.90;;
69588;SDS011;56792;50.644;17.984;2023-08-24T09:02:46;6.50;;;4.10;;
69588;SDS011;56792;50.644;17.984;2023-08-24T09:05:20;6.40;;;4.40;;
69588;SDS011;56792;50.644;17.984;2023-08-24T09:07:54;5.30;;;3.70;;
69588;SDS011;56792;50.644;17.984;2023-08-24T09:10:27;6.60;;;3.90;;
69588;SDS011;56792;50.644;17.984;2023-08-24T09:12:59;6.30;;;3.90;;
69588;SDS011;56792;50.644;17.984;2023-08-24T09:15:35;4.90;;;3.90;;
69588;SDS011;56792;50.644;17.984;2023-08-24T09:18:07;7.80;;;3.70;;
69588;SDS011;56792;50.644;17.984;2023-08-24T09:20:38;5.90;;;3.50;;
69588;SDS011;56792;50.644;17.984;2023-08-24T09:23:18;7.00;;;3.80;;
69588;SDS011;56792;50.644;17.984;2023-08-24T09:25:49;6.50;;;3.90;;
69588;SDS011;56792;50.644;17.984;2023-08-24T09:28:24;4.90;;;3.90;;
69588;SDS011;56792;50.644;17.984;2023-08-24T09:30:56;7.20;;;3.80;;
69588;SDS011;56792;50.644;17.984;2023-08-24T09:33:30;6.40;;;4.00;;
69588;SDS011;56792;50.644;17.984;2023-08-24T09:36:02;4.80;;;3.10;;
69588;SDS011;56792;50.644;17.984;2023-08-24T09:38:36;6.50;;;3.90;;
69588;SDS011;56792;50.644;17.984;2023-08-24T09:41:16;6.80;;;4.20;;
69588;SDS011;56792;50.644;17.984;2023-08-24T09:43:47;6.60;;;4.20;;
69588;SDS011;56792;50.644;17.984;2023-08-24T09:46:20;5.60;;;4.20;;
69588;SDS011;56792;50.644;17.984;2023-08-24T09:48:56;6.70;;;4.50;;
69588;SDS011;56792;50.644;17.984;2023-08-24T09:51:28;7.00;;;3.70;;
69588;SDS011;56792;50.644;17.984;2023-08-24T09:54:04;6.00;;;4.70;;
69588;SDS011;56792;50.644;17.984;2023-08-24T09:56:37;6.90;;;4.90;;
69588;SDS011;56792;50.644;17.984;2023-08-24T09:59:13;6.10;;;5.40;;
69588;SDS011;56792;50.644;17.984;2023-08-24T10:01:48;8.20;;;5.30;;
69588;SDS011;56792;50.644;17.984;2023-08-24T10:04:24;6.90;;;5.40;;
69588;SDS011;56792;50.644;17.984;2023-08-24T10:07:02;8.60;;;6.10;;
69588;SDS011;56792;50.644;17.984;2023-08-24T10:09:47;7.60;;;6.70;;
69588;SDS011;56792;50.644;17.984;2023-08-24T10:12:28;6.90;;;6.20;;
69588;SDS011;56792;50.644;17.984;2023-08-24T10:15:02;6.60;;;6.10;;
69588;SDS011;56792;50.644;17.984;2023-08-24T10:17:35;8.00;;;7.20;;
69588;SDS011;56792;50.644;17.984;2023-08-24T10:20:11;8.50;;;7.70;;
69588;SDS011;56792;50.644;17.984;2023-08-24T10:22:43;9.20;;;8.40;;
69588;SDS011;56792;50.644;17.984;2023-08-24T10:25:15;10.00;;;9.00;;
69588;SDS011;56792;50.644;17.984;2023-08-24T10:27:47;9.30;;;8.60;;
69588;SDS011;56792;50.644;17.984;2023-08-24T10:30:20;10.40;;;9.70;;
69588;SDS011;56792;50.644;17.984;2023-08-24T10:32:52;11.40;;;10.30;;
69588;SDS011;56792;50.644;17.984;2023-08-24T10:35:24;11.10;;;10.30;;
69588;SDS011;56792;50.644;17.984;2023-08-24T10:37:59;11.60;;;10.80;;
69588;SDS011;56792;50.644;17.984;2023-08-24T10:40:34;13.20;;;12.10;;
69588;SDS011;56792;50.644;17.984;2023-08-24T10:43:08;13.00;;;12.10;;
69588;SDS011;56792;50.644;17.984;2023-08-24T10:49:04;14.30;;;13.40;;
69588;SDS011;56792;50.644;17.984;2023-08-24T10:51:43;13.90;;;12.90;;
69588;SDS011;56792;50.644;17.984;2023-08-24T10:54:12;14.10;;;13.10;;
69588;SDS011;56792;50.644;17.984;2023-08-24T10:56:53;14.30;;;13.40;;
69588;SDS011;56792;50.644;17.984;2023-08-24T10:59:23;14.30;;;13.40;;
69588;SDS011;56792;50.644;17.984;2023-08-24T11:01:56;15.30;;;14.10;;
69588;SDS011;56792;50.644;17.984;2023-08-24T11:04:25;15.40;;;14.50;;
69588;SDS011;56792;50.644;17.984;2023-08-24T11:06:55;14.70;;;13.70;;
69588;SDS011;56792;50.644;17.984;2023-08-24T11:09:26;15.50;;;14.40;;
69588;SDS011;56792;50.644;17.984;2023-08-24T11:12:13;15.80;;;14.90;;
69588;SDS011;56792;50.644;17.984;2023-08-24T11:14:49;16.50;;;15.40;;
69588;SDS011;56792;50.644;17.984;2023-08-24T11:17:21;16.20;;;15.30;;
69588;SDS011;56792;50.644;17.984;2023-08-24T11:19:51;17.90;;;16.50;;
69588;SDS011;56792;50.644;17.984;2023-08-24T11:22:21;17.40;;;16.30;;
69588;SDS011;56792;50.644;17.984;2023-08-24T11:24:50;16.30;;;15.40;;
69588;SDS011;56792;50.644;17.984;2023-08-24T11:27:21;16.80;;;15.70;;
69588;SDS011;56792;50.644;17.984;2023-08-24T11:29:59;17.10;;;16.10;;
69588;SDS011;56792;50.644;17.984;2023-08-24T11:32:27;16.20;;;15.20;;
69588;SDS011;56792;50.644;17.984;2023-08-24T11:34:56;16.10;;;15.20;;
69588;SDS011;56792;50.644;17.984;2023-08-24T11:37:26;16.50;;;15.50;;
69588;SDS011;56792;50.644;17.984;2023-08-24T11:39:54;15.70;;;14.60;;
69588;SDS011;56792;50.644;17.984;2023-08-24T11:42:23;15.00;;;14.00;;
69588;SDS011;56792;50.644;17.984;2023-08-24T11:45:11;16.10;;;14.90;;
69588;SDS011;56792;50.644;17.984;2023-08-24T11:47:40;15.10;;;14.20;;
69588;SDS011;56792;50.644;17.984;2023-08-24T11:50:10;14.60;;;13.60;;
69588;SDS011;56792;50.644;17.984;2023-08-24T11:52:40;14.80;;;13.90;;
69588;SDS011;56792;50.644;17.984;2023-08-24T11:55:09;13.90;;;13.00;;
69588;SDS011;56792;50.644;17.984;2023-08-24T11:57:39;13.50;;;12.70;;
69588;SDS011;56792;50.644;17.984;2023-08-24T12:00:11;14.70;;;13.80;;
69588;SDS011;56792;50.644;17.984;2023-08-24T12:02:44;14.60;;;13.70;;
69588;SDS011;56792;50.644;17.984;2023-08-24T12:05:22;14.20;;;13.30;;
69588;SDS011;56792;50.644;17.984;2023-08-24T12:07:53;13.30;;;12.40;;
69588;SDS011;56792;50.644;17.984;2023-08-24T12:10:22;13.60;;;12.70;;
69588;SDS011;56792;50.644;17.984;2023-08-24T12:13:00;13.70;;;12.50;;
69588;SDS011;56792;50.644;17.984;2023-08-24T12:15:29;12.80;;;11.90;;
69588;SDS011;56792;50.644;17.984;2023-08-24T12:17:57;12.50;;;11.70;;
69588;SDS011;56792;50.644;17.984;2023-08-24T12:20:33;13.10;;;12.20;;
69588;SDS011;56792;50.644;17.984;2023-08-24T12:23:03;12.90;;;12.10;;
69588;SDS011;56792;50.644;17.984;2023-08-24T12:25:36;13.50;;;12.70;;
69588;SDS011;56792;50.644;17.984;2023-08-24T12:28:12;13.00;;;12.20;;
69588;SDS011;56792;50.644;17.984;2023-08-24T12:30:50;13.40;;;12.40;;
69588;SDS011;56792;50.644;17.984;2023-08-24T12:33:24;12.90;;;12.00;;
69588;SDS011;56792;50.644;17.984;2023-08-24T12:35:53;12.80;;;11.80;;
69588;SDS011;56792;50.644;17.984;2023-08-24T12:38:22;11.70;;;10.80;;
69588;SDS011;56792;50.644;17.984;2023-08-24T12:40:51;11.50;;;10.80;;
69588;SDS011;56792;50.644;17.984;2023-08-24T12:43:20;12.70;;;11.80;;
69588;SDS011;56792;50.644;17.984;2023-08-24T12:45:48;11.70;;;10.90;;
69588;SDS011;56792;50.644;17.984;2023-08-24T12:48:17;8.70;;;7.90;;
69588;SDS011;56792;50.644;17.984;2023-08-24T12:50:45;10.40;;;9.60;;
69588;SDS011;56792;50.644;17.984;2023-08-24T12:53:13;11.40;;;10.60;;
69588;SDS011;56792;50.644;17.984;2023-08-24T12:55:42;11.60;;;10.80;;
69588;SDS011;56792;50.644;17.984;2023-08-24T12:58:10;10.10;;;9.30;;
69588;SDS011;56792;50.644;17.984;2023-08-24T13:00:38;10.00;;;9.40;;
69588;SDS011;56792;50.644;17.984;2023-08-24T13:03:07;9.90;;;9.10;;
69588;SDS011;56792;50.644;17.984;2023-08-24T13:05:35;10.30;;;9.50;;
69588;SDS011;56792;50.644;17.984;2023-08-24T13:08:04;9.40;;;8.80;;
69588;SDS011;56792;50.644;17.984;2023-08-24T13:10:33;9.50;;;8.40;;
69588;SDS011;56792;50.644;17.984;2023-08-24T13:13:03;7.70;;;7.00;;
69588;SDS011;56792;50.644;17.984;2023-08-24T13:15:32;8.90;;;8.20;;
69588;SDS011;56792;50.644;17.984;2023-08-24T13:18:00;8.80;;;8.20;;
69588;SDS011;56792;50.644;17.984;2023-08-24T13:20:29;7.80;;;7.20;;
69588;SDS011;56792;50.644;17.984;2023-08-24T13:22:57;8.10;;;6.20;;
69588;SDS011;56792;50.644;17.984;2023-08-24T13:25:26;7.20;;;6.50;;
69588;SDS011;56792;50.644;17.984;2023-08-24T13:27:54;6.90;;;6.20;;
69588;SDS011;56792;50.644;17.984;2023-08-24T13:30:23;6.90;;;6.20;;
69588;SDS011;56792;50.644;17.984;2023-08-24T13:32:51;6.60;;;6.10;;
69588;SDS011;56792;50.644;17.984;2023-08-24T13:35:20;6.20;;;5.60;;
69588;SDS011;56792;50.644;17.984;2023-08-24T13:37:49;6.10;;;5.50;;
69588;SDS011;56792;50.644;17.984;2023-08-24T13:40:18;5.70;;;4.90;;
69588;SDS011;56792;50.644;17.984;2023-08-24T13:42:46;4.50;;;4.00;;
69588;SDS011;56792;50.644;17.984;2023-08-24T13:45:15;5.30;;;4.20;;
69588;SDS011;56792;50.644;17.984;2023-08-24T13:47:43;7.80;;;3.90;;
69588;SDS011;56792;50.644;17.984;2023-08-24T13:50:12;6.60;;;3.80;;
69588;SDS011;56792;50.644;17.984;2023-08-24T13:52:40;5.50;;;3.80;;
69588;SDS011;56792;50.644;17.984;2023-08-24T13:55:09;6.90;;;4.10;;
69588;SDS011;56792;50.644;17.984;2023-08-24T13:57:38;5.00;;;4.10;;
69588;SDS011;56792;50.644;17.984;2023-08-24T14:00:08;5.30;;;4.00;;
69588;SDS011;56792;50.644;17.984;2023-08-24T14:02:41;7.10;;;3.90;;
69588;SDS011;56792;50.644;17.984;2023-08-24T14:05:09;4.50;;;3.30;;
69588;SDS011;56792;50.644;17.984;2023-08-24T14:07:39;4.40;;;3.80;;
69588;SDS011;56792;50.644;17.984;2023-08-24T14:10:09;6.60;;;3.80;;
69588;SDS011;56792;50.644;17.984;2023-08-24T14:12:38;4.90;;;3.30;;
69588;SDS011;56792;50.644;17.984;2023-08-24T14:15:09;4.50;;;3.50;;
69588;SDS011;56792;50.644;17.984;2023-08-24T14:17:38;4.50;;;3.00;;
69588;SDS011;56792;50.644;17.984;2023-08-24T14:20:08;4.90;;;3.30;;
69588;SDS011;56792;50.644;17.984;2023-08-24T14:22:39;7.20;;;3.20;;
69588;SDS011;56792;50.644;17.984;2023-08-24T14:25:08;4.50;;;3.30;;
69588;SDS011;56792;50.644;17.984;2023-08-24T14:27:36;4.80;;;3.20;;
69588;SDS011;56792;50.644;17.984;2023-08-24T14:30:07;4.70;;;3.70;;
69588;SDS011;56792;50.644;17.984;2023-08-24T14:32:37;4.40;;;3.70;;
69588;SDS011;56792;50.644;17.984;2023-08-24T14:35:06;5.30;;;3.20;;
69588;SDS011;56792;50.644;17.984;2023-08-24T14:37:36;5.10;;;3.30;;
69588;SDS011;56792;50.644;17.984;2023-08-24T14:40:07;4.80;;;3.50;;
69588;SDS011;56792;50.644;17.984;2023-08-24T14:42:37;6.30;;;3.20;;
69588;SDS011;56792;50.644;17.984;2023-08-24T14:45:06;5.40;;;3.10;;
69588;SDS011;56792;50.644;17.984;2023-08-24T14:47:36;5.00;;;3.70;;
69588;SDS011;56792;50.644;17.984;2023-08-24T14:50:07;5.40;;;3.40;;
69588;SDS011;56792;50.644;17.984;2023-08-24T14:52:37;5.10;;;3.20;;
69588;SDS011;56792;50.644;17.984;2023-08-24T14:55:07;4.80;;;3.20;;
69588;SDS011;56792;50.644;17.984;2023-08-24T14:57:36;5.00;;;3.70;;